Nature

Rosh Pina Airport Is an airport located between Mahanayim and Rosh Pina, Domestic flights are made from it, mainly to Tel Aviv.
The field includes a north-south landing runway (15/33 direction) and a separate landing pad for helicopters away from it. The second runway to the east and west (5/23 direction), and the peripheral taxiways are out of use.

AT EILAT AIRPORT YOU CAN FIND Only one actove RUNWAY (15/33).

Scenery:

Sim Download Size Author
P3D & FSX LLIB Rosh Pina 5.5MB Freeware ISP
P3D & FSX ICVFR Rosh Pina 32.9MB Freeware Chris Bell

Charts:

File Name
General Aerodrome Chart
Ground Parkings Chart
CVFR Lanes of entry / exit on low transport routes and helicopter routes
CVFR Traffic Pattrens Chart
Departure DESHE1B / DESHE1A Departure RWY 15 and 33
Arrival VOR RWY 15 and 33 (CLOUD BREAK)

METAR & TAF:

Available data for LLIB from the past hour
BEN YA AKOV
TAF
TAF LLIB 181101Z 1812/1912 32008KT 9999 SCT025 BECMG 1815/1817 VRB03KT CAVOK BECMG 1907/1909 17006KT TX21/1812Z TN06/1904Z